Terminal Aerodrome Forecast
Issued by NWS Goodland, KS

Home | Current Version | Previous Version | Text Only | Print | Product List | Glossary On
Versions: 1 2 3 4 5 6 7 8 9 10 11 12 13 14 15 16
000
FTUS43 KGLD 230159 AAB
TAFGLD
TAF AMD
KGLD 230159Z 2302/2324 14013G21KT P6SM BKN250
     FM230700 17017G25KT P6SM SCT015 BKN025 WS010/20050KT
     FM231000 18018G26KT P6SM -DZ SCT015 BKN025 WS010/19050KT
     FM231200 19018KT 5SM -DZ SCT008 OVC015
     FM231500 20019G29KT P6SM SCT030 BKN150=

USA.gov is the U.S. government's official web portal to all federal, state and local government web resources and services.